sensor_id;sensor_type;location;lat;lon;timestamp;pressure;altitude;pressure_sealevel;temperature;humidity
32789;BME280;19141;48.980;8.410;2022-10-16T04:22:50;100066.41;;;14.29;100.00
32789;BME280;19141;48.980;8.410;2022-10-16T04:25:15;100070.72;;;14.30;100.00
32789;BME280;19141;48.980;8.410;2022-10-16T04:27:41;100075.88;;;14.32;100.00
32789;BME280;19141;48.980;8.410;2022-10-16T04:30:07;100081.84;;;14.34;100.00
32789;BME280;19141;48.980;8.410;2022-10-16T04:32:32;100095.88;;;14.36;100.00
32789;BME280;19141;48.980;8.410;2022-10-16T04:34:58;100093.22;;;14.43;100.00
32789;BME280;19141;48.980;8.410;2022-10-16T04:37:24;100094.06;;;14.43;100.00
32789;BME280;19141;48.980;8.410;2022-10-16T04:39:50;100099.81;;;14.40;100.00
32789;BME280;19141;48.980;8.410;2022-10-16T04:42:16;100104.97;;;14.35;100.00
32789;BME280;19141;48.980;8.410;2022-10-16T04:44:41;100104.13;;;14.34;100.00
32789;BME280;19141;48.980;8.410;2022-10-16T04:47:07;100105.97;;;14.34;100.00
32789;BME280;19141;48.980;8.410;2022-10-16T04:49:32;100092.78;;;14.32;100.00
32789;BME280;19141;48.980;8.410;2022-10-16T04:51:57;100107.22;;;14.38;100.00
32789;BME280;19141;48.980;8.410;2022-10-16T04:54:23;100096.91;;;14.35;100.00
32789;BME280;19141;48.980;8.410;2022-10-16T04:56:48;100091.97;;;14.38;100.00
32789;BME280;19141;48.980;8.410;2022-10-16T04:59:17;100099.41;;;14.36;100.00
32789;BME280;19141;48.980;8.410;2022-10-16T05:01:42;100112.78;;;14.36;100.00
32789;BME280;19141;48.980;8.410;2022-10-16T05:04:08;100111.97;;;14.36;100.00
32789;BME280;19141;48.980;8.410;2022-10-16T05:06:34;100100.63;;;14.40;100.00
32789;BME280;19141;48.980;8.410;2022-10-16T05:08:59;100110.09;;;14.36;100.00
32789;BME280;19141;48.980;8.410;2022-10-16T05:11:25;100113.41;;;14.38;100.00
32789;BME280;19141;48.980;8.410;2022-10-16T05:13:50;100114.22;;;14.32;100.00
32789;BME280;19141;48.980;8.410;2022-10-16T05:16:15;100099.78;;;14.33;100.00
32789;BME280;19141;48.980;8.410;2022-10-16T05:18:41;100105.78;;;14.35;100.00
32789;BME280;19141;48.980;8.410;2022-10-16T05:21:06;100108.03;;;14.32;100.00
32789;BME280;19141;48.980;8.410;2022-10-16T05:23:33;100115.84;;;14.33;100.00
32789;BME280;19141;48.980;8.410;2022-10-16T05:25:59;100113.97;;;14.27;100.00
32789;BME280;19141;48.980;8.410;2022-10-16T05:28:26;100112.53;;;14.25;100.00
32789;BME280;19141;48.980;8.410;2022-10-16T05:30:52;100119.97;;;14.29;100.00
32789;BME280;19141;48.980;8.410;2022-10-16T05:33:20;100119.16;;;14.29;100.00
32789;BME280;19141;48.980;8.410;2022-10-16T05:35:46;100115.81;;;14.27;100.00
32789;BME280;19141;48.980;8.410;2022-10-16T05:38:11;100116.66;;;14.27;100.00
32789;BME280;19141;48.980;8.410;2022-10-16T05:40:37;100120.16;;;14.28;100.00
32789;BME280;19141;48.980;8.410;2022-10-16T05:43:02;100129.88;;;14.29;100.00
32789;BME280;19141;48.980;8.410;2022-10-16T05:45:27;100133.38;;;14.29;100.00
32789;BME280;19141;48.980;8.410;2022-10-16T05:47:53;100131.53;;;14.30;100.00
32789;BME280;19141;48.980;8.410;2022-10-16T05:50:18;100145.53;;;14.32;100.00
32789;BME280;19141;48.980;8.410;2022-10-16T05:52:44;100141.22;;;14.31;100.00
32789;BME280;19141;48.980;8.410;2022-10-16T05:55:09;100123.72;;;14.35;100.00
32789;BME280;19141;48.980;8.410;2022-10-16T05:57:34;100118.34;;;14.35;100.00
32789;BME280;19141;48.980;8.410;2022-10-16T06:00:00;100123.28;;;14.31;100.00
32789;BME280;19141;48.980;8.410;2022-10-16T06:02:25;100126.56;;;14.33;100.00
32789;BME280;19141;48.980;8.410;2022-10-16T06:04:51;100117.28;;;14.23;100.00
32789;BME280;19141;48.980;8.410;2022-10-16T06:07:18;100127.81;;;14.31;100.00
32789;BME280;19141;48.980;8.410;2022-10-16T06:09:44;100127.38;;;14.27;100.00
32789;BME280;19141;48.980;8.410;2022-10-16T06:12:09;100133.16;;;14.24;100.00
32789;BME280;19141;48.980;8.410;2022-10-16T06:14:34;100147.16;;;14.26;100.00
32789;BME280;19141;48.980;8.410;2022-10-16T06:17:00;100151.91;;;14.24;100.00
32789;BME280;19141;48.980;8.410;2022-10-16T06:19:25;100148.19;;;14.25;100.00
32789;BME280;19141;48.980;8.410;2022-10-16T06:21:51;100132.56;;;14.29;100.00
32789;BME280;19141;48.980;8.410;2022-10-16T06:24:16;100134.19;;;14.30;100.00
32789;BME280;19141;48.980;8.410;2022-10-16T06:26:41;100137.28;;;14.33;100.00
32789;BME280;19141;48.980;8.410;2022-10-16T06:29:08;100138.53;;;14.31;100.00
32789;BME280;19141;48.980;8.410;2022-10-16T06:31:33;100149.47;;;14.36;100.00
32789;BME280;19141;48.980;8.410;2022-10-16T06:33:59;100152.16;;;14.36;100.00
32789;BME280;19141;48.980;8.410;2022-10-16T06:36:25;100163.28;;;14.39;100.00
32789;BME280;19141;48.980;8.410;2022-10-16T06:38:51;100162.06;;;14.42;100.00
32789;BME280;19141;48.980;8.410;2022-10-16T06:41:18;100166.19;;;14.45;100.00
32789;BME280;19141;48.980;8.410;2022-10-16T06:43:44;100167.66;;;14.47;100.00
32789;BME280;19141;48.980;8.410;2022-10-16T06:46:11;100162.13;;;14.49;100.00
32789;BME280;19141;48.980;8.410;2022-10-16T06:48:38;100169.97;;;14.50;100.00
32789;BME280;19141;48.980;8.410;2022-10-16T06:51:11;100160.06;;;14.51;100.00
32789;BME280;19141;48.980;8.410;2022-10-16T06:53:39;100153.88;;;14.50;100.00
32789;BME280;19141;48.980;8.410;2022-10-16T06:56:18;100163.56;;;14.51;100.00
32789;BME280;19141;48.980;8.410;2022-10-16T06:58:44;100163.34;;;14.46;100.00
32789;BME280;19141;48.980;8.410;2022-10-16T07:01:10;100160.50;;;14.48;100.00
32789;BME280;19141;48.980;8.410;2022-10-16T07:03:37;100163.19;;;14.54;100.00
32789;BME280;19141;48.980;8.410;2022-10-16T07:06:05;100165.00;;;14.54;100.00
32789;BME280;19141;48.980;8.410;2022-10-16T07:08:35;100168.34;;;14.56;100.00
32789;BME280;19141;48.980;8.410;2022-10-16T07:11:02;100162.78;;;14.64;100.00
32789;BME280;19141;48.980;8.410;2022-10-16T07:13:28;100162.59;;;14.72;100.00
32789;BME280;19141;48.980;8.410;2022-10-16T07:15:54;100168.81;;;14.79;100.00
32789;BME280;19141;48.980;8.410;2022-10-16T07:18:19;100180.38;;;14.86;100.00
32789;BME280;19141;48.980;8.410;2022-10-16T07:20:45;100189.28;;;14.93;100.00
32789;BME280;19141;48.980;8.410;2022-10-16T07:23:10;100191.16;;;15.00;100.00
32789;BME280;19141;48.980;8.410;2022-10-16T07:25:35;100186.63;;;15.07;100.00
32789;BME280;19141;48.980;8.410;2022-10-16T07:28:01;100187.84;;;15.11;100.00
32789;BME280;19141;48.980;8.410;2022-10-16T07:30:26;100199.03;;;15.21;100.00
32789;BME280;19141;48.980;8.410;2022-10-16T07:32:54;100209.78;;;15.28;100.00
32789;BME280;19141;48.980;8.410;2022-10-16T07:35:19;100212.47;;;15.34;100.00
32789;BME280;19141;48.980;8.410;2022-10-16T07:37:45;100201.13;;;15.39;100.00
32789;BME280;19141;48.980;8.410;2022-10-16T07:40:11;100211.88;;;15.45;100.00
32789;BME280;19141;48.980;8.410;2022-10-16T07:42:36;100205.03;;;15.50;100.00
32789;BME280;19141;48.980;8.410;2022-10-16T07:45:02;100213.09;;;15.56;100.00
32789;BME280;19141;48.980;8.410;2022-10-16T07:47:28;100223.03;;;15.62;100.00
32789;BME280;19141;48.980;8.410;2022-10-16T07:49:53;100230.03;;;15.70;100.00
32789;BME280;19141;48.980;8.410;2022-10-16T07:52:19;100241.22;;;15.73;100.00
32789;BME280;19141;48.980;8.410;2022-10-16T07:54:44;100239.56;;;15.79;100.00
32789;BME280;19141;48.980;8.410;2022-10-16T07:57:09;100233.75;;;15.82;100.00
32789;BME280;19141;48.980;8.410;2022-10-16T07:59:35;100245.53;;;15.88;100.00
32789;BME280;19141;48.980;8.410;2022-10-16T08:02:00;100248.66;;;15.91;100.00
32789;BME280;19141;48.980;8.410;2022-10-16T08:04:26;100246.34;;;15.95;100.00
32789;BME280;19141;48.980;8.410;2022-10-16T08:06:51;100244.69;;;16.00;100.00
32789;BME280;19141;48.980;8.410;2022-10-16T08:09:16;100241.41;;;16.05;100.00
32789;BME280;19141;48.980;8.410;2022-10-16T08:11:42;100243.03;;;16.13;100.00
32789;BME280;19141;48.980;8.410;2022-10-16T08:14:08;100240.72;;;16.23;100.00
32789;BME280;19141;48.980;8.410;2022-10-16T08:16:33;100232.47;;;16.31;100.00
32789;BME280;19141;48.980;8.410;2022-10-16T08:18:58;100232.22;;;16.39;100.00
32789;BME280;19141;48.980;8.410;2022-10-16T08:21:24;100235.72;;;16.46;100.00
32789;BME280;19141;48.980;8.410;2022-10-16T08:23:50;100229.06;;;16.49;100.00
32789;BME280;19141;48.980;8.410;2022-10-16T08:26:15;100234.44;;;16.55;100.00
32789;BME280;19141;48.980;8.410;2022-10-16T08:28:41;100238.97;;;16.62;100.00
32789;BME280;19141;48.980;8.410;2022-10-16T08:31:14;100240.63;;;16.63;100.00
32789;BME280;19141;48.980;8.410;2022-10-16T08:33:42;100241.84;;;16.67;100.00
32789;BME280;19141;48.980;8.410;2022-10-16T08:36:09;100252.59;;;16.67;100.00
32789;BME280;19141;48.980;8.410;2022-10-16T08:38:35;100262.13;;;16.76;100.00
32789;BME280;19141;48.980;8.410;2022-10-16T08:44:20;100271.13;;;16.95;100.00
32789;BME280;19141;48.980;8.410;2022-10-16T08:46:44;100273.16;;;17.06;100.00
32789;BME280;19141;48.980;8.410;2022-10-16T08:49:15;100283.66;;;17.14;100.00
32789;BME280;19141;48.980;8.410;2022-10-16T08:51:41;100284.44;;;17.28;100.00
32789;BME280;19141;48.980;8.410;2022-10-16T08:56:55;100292.75;;;17.51;100.00
32789;BME280;19141;48.980;8.410;2022-10-16T08:59:20;100293.13;;;17.61;100.00
32789;BME280;19141;48.980;8.410;2022-10-16T09:01:47;100298.63;;;17.73;100.00
32789;BME280;19141;48.980;8.410;2022-10-16T09:07:21;100305.69;;;17.99;100.00
32789;BME280;19141;48.980;8.410;2022-10-16T09:13:17;100315.34;;;18.32;100.00
32789;BME280;19141;48.980;8.410;2022-10-16T09:15:31;100316.44;;;18.49;100.00
32789;BME280;19141;48.980;8.410;2022-10-16T09:25:44;100332.78;;;18.54;100.00
32789;BME280;19141;48.980;8.410;2022-10-16T09:28:11;100334.25;;;18.50;100.00
32789;BME280;19141;48.980;8.410;2022-10-16T09:30:37;100332.78;;;18.54;100.00
32789;BME280;19141;48.980;8.410;2022-10-16T09:33:02;100338.41;;;18.53;100.00
32789;BME280;19141;48.980;8.410;2022-10-16T09:35:37;100342.97;;;18.52;100.00
32789;BME280;19141;48.980;8.410;2022-10-16T09:38:03;100347.31;;;18.53;100.00
32789;BME280;19141;48.980;8.410;2022-10-16T09:40:31;100345.59;;;18.59;100.00
32789;BME280;19141;48.980;8.410;2022-10-16T09:46:04;100352.31;;;18.75;100.00
32789;BME280;19141;48.980;8.410;2022-10-16T09:48:43;100351.72;;;18.91;100.00
32789;BME280;19141;48.980;8.410;2022-10-16T09:51:19;100351.09;;;19.07;100.00
32789;BME280;19141;48.980;8.410;2022-10-16T09:53:47;100345.75;;;19.19;100.00
32789;BME280;19141;48.980;8.410;2022-10-16T09:56:22;100348.81;;;19.22;100.00
32789;BME280;19141;48.980;8.410;2022-10-16T09:59:00;100361.84;;;19.44;99.78
32789;BME280;19141;48.980;8.410;2022-10-16T10:01:37;100367.69;;;19.59;100.00
32789;BME280;19141;48.980;8.410;2022-10-16T10:04:03;100372.75;;;19.67;97.39
32789;BME280;19141;48.980;8.410;2022-10-16T10:06:33;100376.72;;;19.83;100.00
32789;BME280;19141;48.980;8.410;2022-10-16T10:09:27;100380.47;;;19.94;99.52
32789;BME280;19141;48.980;8.410;2022-10-16T10:11:55;100380.66;;;20.11;96.13
32789;BME280;19141;48.980;8.410;2022-10-16T10:14:36;100375.09;;;20.05;98.89
32789;BME280;19141;48.980;8.410;2022-10-16T10:19:48;100373.16;;;20.59;94.24
32789;BME280;19141;48.980;8.410;2022-10-16T10:22:19;100377.31;;;20.74;91.31
32789;BME280;19141;48.980;8.410;2022-10-16T10:25:00;100379.72;;;20.99;93.03
32789;BME280;19141;48.980;8.410;2022-10-16T10:30:22;100372.56;;;21.73;81.68
32789;BME280;19141;48.980;8.410;2022-10-16T10:33:05;100379.44;;;22.98;79.74
32789;BME280;19141;48.980;8.410;2022-10-16T10:35:53;100373.47;;;23.94;75.38
32789;BME280;19141;48.980;8.410;2022-10-16T10:41:11;100360.06;;;25.77;68.57
32789;BME280;19141;48.980;8.410;2022-10-16T10:47:01;100357.06;;;25.84;63.51
32789;BME280;19141;48.980;8.410;2022-10-16T10:49:31;100355.44;;;26.13;61.85
32789;BME280;19141;48.980;8.410;2022-10-16T10:54:51;100370.41;;;25.70;66.20
32789;BME280;19141;48.980;8.410;2022-10-16T11:02:40;100374.47;;;24.47;70.40
32789;BME280;19141;48.980;8.410;2022-10-16T11:05:33;100371.88;;;23.98;74.46
32789;BME280;19141;48.980;8.410;2022-10-16T11:08:26;100364.50;;;23.45;76.08
32789;BME280;19141;48.980;8.410;2022-10-16T11:13:35;100365.00;;;23.15;78.62
32789;BME280;19141;48.980;8.410;2022-10-16T11:16:21;100362.63;;;23.01;82.09
32789;BME280;19141;48.980;8.410;2022-10-16T11:21:16;100361.63;;;23.08;80.91
32789;BME280;19141;48.980;8.410;2022-10-16T11:26:19;100350.56;;;23.36;75.45
32789;BME280;19141;48.980;8.410;2022-10-16T11:28:48;100353.28;;;23.36;78.43
32789;BME280;19141;48.980;8.410;2022-10-16T11:31:35;100348.41;;;23.38;73.33
32789;BME280;19141;48.980;8.410;2022-10-16T11:36:49;100349.97;;;23.56;69.80
32789;BME280;19141;48.980;8.410;2022-10-16T11:39:26;100348.00;;;23.51;72.70
32789;BME280;19141;48.980;8.410;2022-10-16T11:50:15;100335.69;;;23.17;69.76
32789;BME280;19141;48.980;8.410;2022-10-16T11:52:54;100336.16;;;23.36;70.52
32789;BME280;19141;48.980;8.410;2022-10-16T11:55:44;100338.16;;;23.45;68.63
32789;BME280;19141;48.980;8.410;2022-10-16T12:00:47;100340.59;;;24.33;65.34
32789;BME280;19141;48.980;8.410;2022-10-16T12:03:35;100344.81;;;24.51;61.20
32789;BME280;19141;48.980;8.410;2022-10-16T12:09:00;100341.53;;;24.17;64.39
32789;BME280;19141;48.980;8.410;2022-10-16T12:13:52;100338.09;;;23.62;66.51
32789;BME280;19141;48.980;8.410;2022-10-16T12:16:21;100342.00;;;23.49;66.17
32789;BME280;19141;48.980;8.410;2022-10-16T12:18:47;100342.41;;;23.36;70.36
32789;BME280;19141;48.980;8.410;2022-10-16T12:21:14;100340.91;;;23.01;70.39
32789;BME280;19141;48.980;8.410;2022-10-16T12:23:51;100336.25;;;22.97;71.99
32789;BME280;19141;48.980;8.410;2022-10-16T12:26:27;100333.06;;;22.83;73.39
32789;BME280;19141;48.980;8.410;2022-10-16T12:28:54;100329.56;;;22.66;72.18
32789;BME280;19141;48.980;8.410;2022-10-16T12:31:20;100327.38;;;22.63;72.69
32789;BME280;19141;48.980;8.410;2022-10-16T12:33:58;100328.78;;;22.48;73.00
32789;BME280;19141;48.980;8.410;2022-10-16T12:36:30;100323.41;;;22.54;73.42
32789;BME280;19141;48.980;8.410;2022-10-16T12:38:56;100336.81;;;22.60;75.33
32789;BME280;19141;48.980;8.410;2022-10-16T12:41:30;100331.84;;;22.74;76.99
32789;BME280;19141;48.980;8.410;2022-10-16T12:43:57;100324.84;;;22.78;77.78
32789;BME280;19141;48.980;8.410;2022-10-16T12:49:50;100314.44;;;22.70;78.89
32789;BME280;19141;48.980;8.410;2022-10-16T12:51:50;100333.00;;;22.78;77.94
32789;BME280;19141;48.980;8.410;2022-10-16T12:54:39;100333.97;;;22.89;77.00
32789;BME280;19141;48.980;8.410;2022-10-16T12:57:09;100334.66;;;23.01;77.33
32789;BME280;19141;48.980;8.410;2022-10-16T13:07:55;100342.97;;;22.56;77.97
32789;BME280;19141;48.980;8.410;2022-10-16T13:10:41;100346.53;;;22.56;77.40
32789;BME280;19141;48.980;8.410;2022-10-16T13:16:17;100333.91;;;22.28;79.46
32789;BME280;19141;48.980;8.410;2022-10-16T13:18:55;100339.19;;;22.18;79.09
32789;BME280;19141;48.980;8.410;2022-10-16T13:24:26;100344.16;;;21.92;79.58
32789;BME280;19141;48.980;8.410;2022-10-16T13:27:22;100334.94;;;21.93;79.77
32789;BME280;19141;48.980;8.410;2022-10-16T13:30:22;100334.94;;;21.93;78.29
32789;BME280;19141;48.980;8.410;2022-10-16T13:32:48;100331.41;;;21.93;77.15
32789;BME280;19141;48.980;8.410;2022-10-16T13:35:32;100333.13;;;21.82;77.56
32789;BME280;19141;48.980;8.410;2022-10-16T13:38:12;100332.31;;;21.82;81.29
32789;BME280;19141;48.980;8.410;2022-10-16T13:43:25;100330.00;;;21.74;80.27
32789;BME280;19141;48.980;8.410;2022-10-16T13:46:03;100329.66;;;21.70;78.94
32789;BME280;19141;48.980;8.410;2022-10-16T13:48:30;100332.69;;;21.57;80.41
32789;BME280;19141;48.980;8.410;2022-10-16T13:53:25;100334.25;;;21.53;82.75
32789;BME280;19141;48.980;8.410;2022-10-16T13:55:50;100333.78;;;21.44;84.04
32789;BME280;19141;48.980;8.410;2022-10-16T13:58:15;100335.13;;;21.42;84.18
32789;BME280;19141;48.980;8.410;2022-10-16T14:00:56;100327.94;;;21.35;85.27
32789;BME280;19141;48.980;8.410;2022-10-16T14:03:22;100335.50;;;21.22;86.01
32789;BME280;19141;48.980;8.410;2022-10-16T14:05:51;100336.13;;;21.12;88.54
32789;BME280;19141;48.980;8.410;2022-10-16T14:08:17;100333.41;;;21.12;88.92
32789;BME280;19141;48.980;8.410;2022-10-16T14:10:48;100332.84;;;21.10;88.75
32789;BME280;19141;48.980;8.410;2022-10-16T14:13:17;100338.38;;;21.03;88.26
32789;BME280;19141;48.980;8.410;2022-10-16T14:15:47;100328.88;;;21.01;90.21
32789;BME280;19141;48.980;8.410;2022-10-16T14:18:18;100332.50;;;21.06;91.63
32789;BME280;19141;48.980;8.410;2022-10-16T14:20:45;100335.31;;;21.11;93.89
32789;BME280;19141;48.980;8.410;2022-10-16T14:23:29;100335.41;;;21.17;96.54
32789;BME280;19141;48.980;8.410;2022-10-16T14:28:39;100334.53;;;21.39;90.35
32789;BME280;19141;48.980;8.410;2022-10-16T14:31:33;100324.69;;;21.50;88.55
32789;BME280;19141;48.980;8.410;2022-10-16T14:33:59;100322.19;;;21.60;87.52
32789;BME280;19141;48.980;8.410;2022-10-16T14:36:26;100322.75;;;21.62;86.82
32789;BME280;19141;48.980;8.410;2022-10-16T14:41:28;100328.53;;;21.66;86.19
32789;BME280;19141;48.980;8.410;2022-10-16T14:43:56;100334.00;;;21.71;86.31
32789;BME280;19141;48.980;8.410;2022-10-16T14:46:32;100330.25;;;21.72;84.95
32789;BME280;19141;48.980;8.410;2022-10-16T14:51:40;100328.78;;;21.81;84.98
32789;BME280;19141;48.980;8.410;2022-10-16T14:54:10;100324.75;;;21.84;84.57
32789;BME280;19141;48.980;8.410;2022-10-16T14:56:46;100320.72;;;21.86;83.57
32789;BME280;19141;48.980;8.410;2022-10-16T14:59:18;100325.59;;;21.84;82.78
32789;BME280;19141;48.980;8.410;2022-10-16T15:01:45;100329.50;;;21.77;81.54
32789;BME280;19141;48.980;8.410;2022-10-16T15:04:12;100319.63;;;21.71;82.59
32789;BME280;19141;48.980;8.410;2022-10-16T15:06:37;100331.28;;;21.71;83.75
32789;BME280;19141;48.980;8.410;2022-10-16T15:09:03;100327.44;;;21.67;83.46
32789;BME280;19141;48.980;8.410;2022-10-16T15:11:29;100327.91;;;21.64;84.11
32789;BME280;19141;48.980;8.410;2022-10-16T15:13:56;100333.03;;;21.60;84.17
32789;BME280;19141;48.980;8.410;2022-10-16T15:16:21;100325.16;;;21.59;85.04
32789;BME280;19141;48.980;8.410;2022-10-16T15:18:47;100333.19;;;21.54;85.65
32789;BME280;19141;48.980;8.410;2022-10-16T15:21:25;100330.72;;;21.52;86.60
32789;BME280;19141;48.980;8.410;2022-10-16T15:23:51;100330.94;;;21.51;86.28
32789;BME280;19141;48.980;8.410;2022-10-16T15:26:17;100327.56;;;21.44;87.28
32789;BME280;19141;48.980;8.410;2022-10-16T15:28:43;100339.00;;;21.46;88.21
32789;BME280;19141;48.980;8.410;2022-10-16T15:31:08;100334.28;;;21.41;88.78
32789;BME280;19141;48.980;8.410;2022-10-16T15:33:34;100325.81;;;21.37;88.48
32789;BME280;19141;48.980;8.410;2022-10-16T15:36:01;100321.72;;;21.35;88.57
32789;BME280;19141;48.980;8.410;2022-10-16T15:38:27;100321.59;;;21.30;89.88
32789;BME280;19141;48.980;8.410;2022-10-16T15:40:53;100324.19;;;21.25;90.77
32789;BME280;19141;48.980;8.410;2022-10-16T15:43:19;100326.00;;;21.19;91.86
32789;BME280;19141;48.980;8.410;2022-10-16T15:45:59;100326.59;;;21.09;93.73
32789;BME280;19141;48.980;8.410;2022-10-16T15:48:26;100331.59;;;21.01;95.44
32789;BME280;19141;48.980;8.410;2022-10-16T15:50:52;100328.19;;;20.94;96.05
32789;BME280;19141;48.980;8.410;2022-10-16T15:53:17;100329.03;;;20.82;96.58
32789;BME280;19141;48.980;8.410;2022-10-16T15:55:42;100339.50;;;20.79;97.30
32789;BME280;19141;48.980;8.410;2022-10-16T15:58:08;100342.13;;;20.74;98.33
32789;BME280;19141;48.980;8.410;2022-10-16T16:00:33;100346.59;;;20.68;100.00
32789;BME280;19141;48.980;8.410;2022-10-16T16:02:59;100349.19;;;20.63;100.00
32789;BME280;19141;48.980;8.410;2022-10-16T16:05:24;100347.66;;;20.55;100.00
32789;BME280;19141;48.980;8.410;2022-10-16T16:07:50;100347.78;;;20.49;100.00
32789;BME280;19141;48.980;8.410;2022-10-16T16:10:16;100343.84;;;20.33;100.00
32789;BME280;19141;48.980;8.410;2022-10-16T16:12:42;100338.78;;;20.13;100.00
32789;BME280;19141;48.980;8.410;2022-10-16T16:15:09;100349.25;;;20.10;100.00
32789;BME280;19141;48.980;8.410;2022-10-16T16:17:35;100339.00;;;20.00;100.00
32789;BME280;19141;48.980;8.410;2022-10-16T16:20:02;100347.69;;;19.90;100.00
32789;BME280;19141;48.980;8.410;2022-10-16T16:22:27;100350.84;;;19.87;100.00
32789;BME280;19141;48.980;8.410;2022-10-16T16:24:53;100348.09;;;19.75;100.00
32789;BME280;19141;48.980;8.410;2022-10-16T16:27:18;100342.69;;;19.75;100.00
32789;BME280;19141;48.980;8.410;2022-10-16T16:29:46;100348.59;;;19.72;100.00
32789;BME280;19141;48.980;8.410;2022-10-16T16:32:14;100346.44;;;19.63;100.00
32789;BME280;19141;48.980;8.410;2022-10-16T16:34:40;100352.84;;;19.50;100.00
32789;BME280;19141;48.980;8.410;2022-10-16T16:37:05;100345.75;;;19.37;100.00
32789;BME280;19141;48.980;8.410;2022-10-16T16:39:30;100354.59;;;19.26;100.00
32789;BME280;19141;48.980;8.410;2022-10-16T16:41:57;100341.63;;;19.16;100.00
32789;BME280;19141;48.980;8.410;2022-10-16T16:44:23;100343.16;;;19.12;100.00
32789;BME280;19141;48.980;8.410;2022-10-16T16:46:49;100340.59;;;19.17;100.00
32789;BME280;19141;48.980;8.410;2022-10-16T16:49:14;100349.88;;;19.03;100.00
32789;BME280;19141;48.980;8.410;2022-10-16T16:51:40;100336.69;;;18.95;100.00
32789;BME280;19141;48.980;8.410;2022-10-16T16:54:06;100348.19;;;18.72;100.00
32789;BME280;19141;48.980;8.410;2022-10-16T16:56:33;100348.50;;;18.57;100.00
32789;BME280;19141;48.980;8.410;2022-10-16T16:58:59;100347.31;;;18.53;100.00
32789;BME280;19141;48.980;8.410;2022-10-16T17:01:26;100358.38;;;18.45;100.00
32789;BME280;19141;48.980;8.410;2022-10-16T17:03:54;100351.38;;;18.37;100.00
32789;BME280;19141;48.980;8.410;2022-10-16T17:06:22;100360.00;;;18.28;100.00
32789;BME280;19141;48.980;8.410;2022-10-16T17:08:48;100358.59;;;18.18;100.00
32789;BME280;19141;48.980;8.410;2022-10-16T17:11:16;100364.56;;;18.02;100.00
32789;BME280;19141;48.980;8.410;2022-10-16T17:13:42;100366.97;;;18.10;100.00
32789;BME280;19141;48.980;8.410;2022-10-16T17:16:08;100363.69;;;18.08;100.00
32789;BME280;19141;48.980;8.410;2022-10-16T17:18:34;100365.59;;;18.01;100.00
32789;BME280;19141;48.980;8.410;2022-10-16T17:21:02;100371.28;;;17.93;100.00
32789;BME280;19141;48.980;8.410;2022-10-16T17:23:28;100373.19;;;17.79;100.00
32789;BME280;19141;48.980;8.410;2022-10-16T17:25:53;100372.38;;;17.79;100.00
32789;BME280;19141;48.980;8.410;2022-10-16T17:28:19;100380.09;;;17.75;100.00
32789;BME280;19141;48.980;8.410;2022-10-16T17:30:44;100379.03;;;17.70;100.00
32789;BME280;19141;48.980;8.410;2022-10-16T17:33:11;100376.38;;;17.63;100.00
32789;BME280;19141;48.980;8.410;2022-10-16T17:35:43;100382.63;;;17.57;100.00
32789;BME280;19141;48.980;8.410;2022-10-16T17:38:10;100384.09;;;17.53;100.00
32789;BME280;19141;48.980;8.410;2022-10-16T17:40:36;100385.59;;;17.49;100.00
32789;BME280;19141;48.980;8.410;2022-10-16T17:43:02;100387.25;;;17.50;100.00
32789;BME280;19141;48.980;8.410;2022-10-16T17:45:28;100388.25;;;17.55;100.00
32789;BME280;19141;48.980;8.410;2022-10-16T17:47:54;100394.69;;;17.54;100.00
32789;BME280;19141;48.980;8.410;2022-10-16T17:50:19;100391.56;;;17.51;100.00
32789;BME280;19141;48.980;8.410;2022-10-16T17:52:45;100392.06;;;17.41;100.00
32789;BME280;19141;48.980;8.410;2022-10-16T17:55:11;100391.66;;;17.31;100.00
32789;BME280;19141;48.980;8.410;2022-10-16T17:57:36;100388.38;;;17.29;100.00
32789;BME280;19141;48.980;8.410;2022-10-16T18:00:03;100401.63;;;17.24;100.00
32789;BME280;19141;48.980;8.410;2022-10-16T18:02:29;100398.34;;;17.22;100.00
32789;BME280;19141;48.980;8.410;2022-10-16T18:04:55;100393.00;;;17.15;100.00
32789;BME280;19141;48.980;8.410;2022-10-16T18:07:21;100400.44;;;17.13;100.00
32789;BME280;19141;48.980;8.410;2022-10-16T18:09:46;100398.75;;;17.19;100.00
32789;BME280;19141;48.980;8.410;2022-10-16T18:12:12;100402.72;;;17.09;100.00
32789;BME280;19141;48.980;8.410;2022-10-16T18:14:37;100402.72;;;17.09;100.00
32789;BME280;19141;48.980;8.410;2022-10-16T18:17:03;100407.69;;;17.13;100.00
32789;BME280;19141;48.980;8.410;2022-10-16T18:19:28;100411.41;;;17.12;100.00
32789;BME280;19141;48.980;8.410;2022-10-16T18:21:54;100410.38;;;17.13;100.00
32789;BME280;19141;48.980;8.410;2022-10-16T18:24:20;100416.19;;;17.09;100.00
32789;BME280;19141;48.980;8.410;2022-10-16T18:26:48;100418.44;;;17.13;100.00
32789;BME280;19141;48.980;8.410;2022-10-16T18:29:14;100412.88;;;17.07;100.00
32789;BME280;19141;48.980;8.410;2022-10-16T18:31:39;100422.63;;;17.08;100.00
32789;BME280;19141;48.980;8.410;2022-10-16T18:34:05;100415.78;;;16.99;100.00
32789;BME280;19141;48.980;8.410;2022-10-16T18:36:32;100416.00;;;16.98;100.00
32789;BME280;19141;48.980;8.410;2022-10-16T18:38:59;100415.78;;;16.99;100.00
32789;BME280;19141;48.980;8.410;2022-10-16T18:41:26;100419.09;;;16.95;100.00
32789;BME280;19141;48.980;8.410;2022-10-16T18:43:52;100420.56;;;16.97;100.00
32789;BME280;19141;48.980;8.410;2022-10-16T18:46:24;100416.03;;;16.91;100.00
32789;BME280;19141;48.980;8.410;2022-10-16T18:48:50;100420.59;;;16.91;100.00
32789;BME280;19141;48.980;8.410;2022-10-16T18:51:26;100419.75;;;16.90;100.00